sensor_id;sensor_type;location;lat;lon;timestamp;P1;durP1;ratioP1;P2;durP2;ratioP2
45540;SDS011;31265;49.680;8.608;2023-06-05T00:01:40;1.25;;;0.30;;
45540;SDS011;31265;49.680;8.608;2023-06-05T00:04:08;1.33;;;0.80;;
45540;SDS011;31265;49.680;8.608;2023-06-05T00:06:36;2.63;;;0.60;;
45540;SDS011;31265;49.680;8.608;2023-06-05T00:09:06;1.98;;;0.50;;
45540;SDS011;31265;49.680;8.608;2023-06-05T00:11:34;1.75;;;0.70;;
45540;SDS011;31265;49.680;8.608;2023-06-05T00:14:04;1.40;;;0.57;;
45540;SDS011;31265;49.680;8.608;2023-06-05T00:16:34;1.88;;;0.32;;
45540;SDS011;31265;49.680;8.608;2023-06-05T00:19:03;1.17;;;0.50;;
45540;SDS011;31265;49.680;8.608;2023-06-05T00:21:31;2.90;;;0.70;;
45540;SDS011;31265;49.680;8.608;2023-06-05T00:24:03;1.80;;;0.55;;
45540;SDS011;31265;49.680;8.608;2023-06-05T00:26:31;1.23;;;0.40;;
45540;SDS011;31265;49.680;8.608;2023-06-05T00:29:00;1.15;;;0.30;;
45540;SDS011;31265;49.680;8.608;2023-06-05T00:31:30;8.07;;;1.42;;
45540;SDS011;31265;49.680;8.608;2023-06-05T00:33:59;1.70;;;0.57;;
45540;SDS011;31265;49.680;8.608;2023-06-05T00:36:27;1.33;;;0.60;;
45540;SDS011;31265;49.680;8.608;2023-06-05T00:38:56;2.13;;;0.67;;
45540;SDS011;31265;49.680;8.608;2023-06-05T00:41:24;3.67;;;1.02;;
45540;SDS011;31265;49.680;8.608;2023-06-05T00:43:53;4.35;;;1.17;;
45540;SDS011;31265;49.680;8.608;2023-06-05T00:46:22;4.00;;;1.27;;
45540;SDS011;31265;49.680;8.608;2023-06-05T00:48:51;3.45;;;1.23;;
45540;SDS011;31265;49.680;8.608;2023-06-05T00:51:20;8.93;;;3.42;;
45540;SDS011;31265;49.680;8.608;2023-06-05T00:53:48;12.02;;;3.22;;
45540;SDS011;31265;49.680;8.608;2023-06-05T00:56:18;13.55;;;4.15;;
45540;SDS011;31265;49.680;8.608;2023-06-05T00:58:47;10.43;;;2.72;;
45540;SDS011;31265;49.680;8.608;2023-06-05T01:01:17;14.20;;;3.67;;
45540;SDS011;31265;49.680;8.608;2023-06-05T01:03:47;16.42;;;4.32;;
45540;SDS011;31265;49.680;8.608;2023-06-05T01:06:17;10.75;;;2.75;;
45540;SDS011;31265;49.680;8.608;2023-06-05T01:08:46;14.52;;;4.18;;
45540;SDS011;31265;49.680;8.608;2023-06-05T01:11:16;6.78;;;2.15;;
45540;SDS011;31265;49.680;8.608;2023-06-05T01:13:53;1.58;;;0.70;;
45540;SDS011;31265;49.680;8.608;2023-06-05T01:16:27;3.65;;;1.55;;
45540;SDS011;31265;49.680;8.608;2023-06-05T01:18:59;3.42;;;1.20;;
45540;SDS011;31265;49.680;8.608;2023-06-05T01:21:33;2.90;;;0.77;;
45540;SDS011;31265;49.680;8.608;2023-06-05T01:24:04;1.13;;;0.40;;
45540;SDS011;31265;49.680;8.608;2023-06-05T01:26:34;3.45;;;0.65;;
45540;SDS011;31265;49.680;8.608;2023-06-05T01:29:07;4.85;;;0.70;;
45540;SDS011;31265;49.680;8.608;2023-06-05T01:31:39;1.33;;;0.50;;
45540;SDS011;31265;49.680;8.608;2023-06-05T01:34:12;1.17;;;0.45;;
45540;SDS011;31265;49.680;8.608;2023-06-05T01:36:46;1.10;;;0.38;;
45540;SDS011;31265;49.680;8.608;2023-06-05T01:39:17;1.15;;;0.52;;
45540;SDS011;31265;49.680;8.608;2023-06-05T01:41:46;1.95;;;0.50;;
45540;SDS011;31265;49.680;8.608;2023-06-05T01:44:17;1.65;;;0.50;;
45540;SDS011;31265;49.680;8.608;2023-06-05T01:46:45;2.15;;;0.70;;
45540;SDS011;31265;49.680;8.608;2023-06-05T01:49:15;0.82;;;0.40;;
45540;SDS011;31265;49.680;8.608;2023-06-05T01:51:44;2.58;;;0.70;;
45540;SDS011;31265;49.680;8.608;2023-06-05T01:54:13;1.07;;;0.40;;
45540;SDS011;31265;49.680;8.608;2023-06-05T01:56:44;1.98;;;0.60;;
45540;SDS011;31265;49.680;8.608;2023-06-05T01:59:15;2.00;;;0.60;;
45540;SDS011;31265;49.680;8.608;2023-06-05T02:01:44;4.03;;;1.03;;
45540;SDS011;31265;49.680;8.608;2023-06-05T02:04:18;1.02;;;0.43;;
45540;SDS011;31265;49.680;8.608;2023-06-05T02:06:47;1.20;;;0.50;;
45540;SDS011;31265;49.680;8.608;2023-06-05T02:09:15;1.27;;;0.47;;
45540;SDS011;31265;49.680;8.608;2023-06-05T02:11:45;2.22;;;0.55;;
45540;SDS011;31265;49.680;8.608;2023-06-05T02:14:14;0.98;;;0.47;;
45540;SDS011;31265;49.680;8.608;2023-06-05T02:16:42;1.70;;;0.30;;
45540;SDS011;31265;49.680;8.608;2023-06-05T02:19:15;2.53;;;0.40;;
45540;SDS011;31265;49.680;8.608;2023-06-05T02:21:45;1.65;;;0.60;;
45540;SDS011;31265;49.680;8.608;2023-06-05T02:24:15;1.08;;;0.40;;
45540;SDS011;31265;49.680;8.608;2023-06-05T02:26:46;4.82;;;0.73;;
45540;SDS011;31265;49.680;8.608;2023-06-05T02:29:16;2.05;;;0.40;;
45540;SDS011;31265;49.680;8.608;2023-06-05T02:31:45;1.05;;;0.30;;
45540;SDS011;31265;49.680;8.608;2023-06-05T02:34:13;1.05;;;0.40;;
45540;SDS011;31265;49.680;8.608;2023-06-05T02:36:43;2.83;;;0.43;;
45540;SDS011;31265;49.680;8.608;2023-06-05T02:39:13;1.67;;;0.50;;
45540;SDS011;31265;49.680;8.608;2023-06-05T02:41:42;5.80;;;0.73;;
45540;SDS011;31265;49.680;8.608;2023-06-05T02:46:41;1.13;;;0.45;;
45540;SDS011;31265;49.680;8.608;2023-06-05T02:49:10;1.30;;;0.43;;
45540;SDS011;31265;49.680;8.608;2023-06-05T02:51:39;1.13;;;0.40;;
45540;SDS011;31265;49.680;8.608;2023-06-05T02:54:08;1.13;;;0.50;;
45540;SDS011;31265;49.680;8.608;2023-06-05T02:56:38;3.50;;;0.40;;
45540;SDS011;31265;49.680;8.608;2023-06-05T02:59:07;1.40;;;0.50;;
45540;SDS011;31265;49.680;8.608;2023-06-05T03:01:38;1.50;;;0.47;;
45540;SDS011;31265;49.680;8.608;2023-06-05T03:04:15;1.95;;;0.50;;
45540;SDS011;31265;49.680;8.608;2023-06-05T03:06:49;1.92;;;0.70;;
45540;SDS011;31265;49.680;8.608;2023-06-05T03:09:20;1.42;;;0.47;;
45540;SDS011;31265;49.680;8.608;2023-06-05T03:11:50;1.70;;;0.70;;
45540;SDS011;31265;49.680;8.608;2023-06-05T03:14:19;0.60;;;0.20;;
45540;SDS011;31265;49.680;8.608;2023-06-05T03:16:49;3.83;;;0.52;;
45540;SDS011;31265;49.680;8.608;2023-06-05T03:19:18;1.15;;;0.30;;
45540;SDS011;31265;49.680;8.608;2023-06-05T03:21:46;1.48;;;0.47;;
45540;SDS011;31265;49.680;8.608;2023-06-05T03:24:17;1.58;;;0.73;;
45540;SDS011;31265;49.680;8.608;2023-06-05T03:26:53;0.73;;;0.30;;
45540;SDS011;31265;49.680;8.608;2023-06-05T03:29:22;1.25;;;0.30;;
45540;SDS011;31265;49.680;8.608;2023-06-05T03:31:53;1.20;;;0.45;;
45540;SDS011;31265;49.680;8.608;2023-06-05T03:34:21;1.67;;;0.50;;
45540;SDS011;31265;49.680;8.608;2023-06-05T03:36:56;1.02;;;0.30;;
45540;SDS011;31265;49.680;8.608;2023-06-05T03:39:26;4.57;;;0.57;;
45540;SDS011;31265;49.680;8.608;2023-06-05T03:41:55;2.42;;;0.45;;
45540;SDS011;31265;49.680;8.608;2023-06-05T03:44:27;1.23;;;0.40;;
45540;SDS011;31265;49.680;8.608;2023-06-05T03:46:59;1.20;;;0.50;;
45540;SDS011;31265;49.680;8.608;2023-06-05T03:49:29;1.25;;;0.52;;
45540;SDS011;31265;49.680;8.608;2023-06-05T03:51:57;1.27;;;0.28;;
45540;SDS011;31265;49.680;8.608;2023-06-05T03:54:28;1.60;;;0.45;;
45540;SDS011;31265;49.680;8.608;2023-06-05T03:56:59;3.97;;;0.60;;
45540;SDS011;31265;49.680;8.608;2023-06-05T03:59:29;2.17;;;0.40;;
45540;SDS011;31265;49.680;8.608;2023-06-05T04:02:04;1.27;;;0.50;;
45540;SDS011;31265;49.680;8.608;2023-06-05T04:04:34;2.13;;;0.50;;
45540;SDS011;31265;49.680;8.608;2023-06-05T04:07:02;0.63;;;0.28;;
45540;SDS011;31265;49.680;8.608;2023-06-05T04:09:32;1.25;;;0.20;;
45540;SDS011;31265;49.680;8.608;2023-06-05T04:12:00;1.13;;;0.43;;
45540;SDS011;31265;49.680;8.608;2023-06-05T04:14:33;1.55;;;0.55;;
45540;SDS011;31265;49.680;8.608;2023-06-05T04:17:04;1.15;;;0.45;;
45540;SDS011;31265;49.680;8.608;2023-06-05T04:19:35;4.47;;;0.90;;
45540;SDS011;31265;49.680;8.608;2023-06-05T04:22:04;2.50;;;0.40;;
45540;SDS011;31265;49.680;8.608;2023-06-05T04:24:33;2.17;;;0.55;;
45540;SDS011;31265;49.680;8.608;2023-06-05T04:27:02;3.67;;;0.55;;
45540;SDS011;31265;49.680;8.608;2023-06-05T04:29:30;2.50;;;0.50;;
45540;SDS011;31265;49.680;8.608;2023-06-05T04:32:00;1.73;;;0.65;;
45540;SDS011;31265;49.680;8.608;2023-06-05T04:34:30;3.75;;;0.50;;
45540;SDS011;31265;49.680;8.608;2023-06-05T04:36:59;0.73;;;0.38;;
45540;SDS011;31265;49.680;8.608;2023-06-05T04:39:28;3.03;;;0.68;;
45540;SDS011;31265;49.680;8.608;2023-06-05T04:42:00;0.85;;;0.45;;
45540;SDS011;31265;49.680;8.608;2023-06-05T04:44:43;1.48;;;0.60;;
45540;SDS011;31265;49.680;8.608;2023-06-05T04:47:12;1.40;;;0.40;;
45540;SDS011;31265;49.680;8.608;2023-06-05T04:49:42;1.30;;;0.45;;
45540;SDS011;31265;49.680;8.608;2023-06-05T04:52:10;4.28;;;0.70;;
45540;SDS011;31265;49.680;8.608;2023-06-05T04:54:40;1.58;;;0.55;;
45540;SDS011;31265;49.680;8.608;2023-06-05T04:57:09;1.20;;;0.50;;
45540;SDS011;31265;49.680;8.608;2023-06-05T04:59:38;0.50;;;0.30;;
45540;SDS011;31265;49.680;8.608;2023-06-05T05:02:07;1.17;;;0.57;;
45540;SDS011;31265;49.680;8.608;2023-06-05T05:04:36;2.45;;;0.77;;
45540;SDS011;31265;49.680;8.608;2023-06-05T05:07:06;1.38;;;0.50;;
45540;SDS011;31265;49.680;8.608;2023-06-05T05:09:40;2.83;;;0.57;;
45540;SDS011;31265;49.680;8.608;2023-06-05T05:12:09;1.98;;;0.65;;
45540;SDS011;31265;49.680;8.608;2023-06-05T05:14:38;1.45;;;0.63;;
45540;SDS011;31265;49.680;8.608;2023-06-05T05:17:07;1.73;;;0.70;;
45540;SDS011;31265;49.680;8.608;2023-06-05T05:19:36;2.28;;;0.93;;
45540;SDS011;31265;49.680;8.608;2023-06-05T05:22:10;1.35;;;0.45;;
45540;SDS011;31265;49.680;8.608;2023-06-05T05:24:38;0.90;;;0.45;;
45540;SDS011;31265;49.680;8.608;2023-06-05T05:27:09;3.25;;;0.50;;
45540;SDS011;31265;49.680;8.608;2023-06-05T05:29:37;2.70;;;0.80;;
45540;SDS011;31265;49.680;8.608;2023-06-05T05:32:07;6.75;;;0.70;;
45540;SDS011;31265;49.680;8.608;2023-06-05T05:34:35;4.93;;;0.82;;
45540;SDS011;31265;49.680;8.608;2023-06-05T05:37:05;1.58;;;0.38;;
45540;SDS011;31265;49.680;8.608;2023-06-05T05:39:35;1.98;;;0.63;;
45540;SDS011;31265;49.680;8.608;2023-06-05T05:42:04;1.05;;;0.50;;
45540;SDS011;31265;49.680;8.608;2023-06-05T05:44:33;1.10;;;0.38;;
45540;SDS011;31265;49.680;8.608;2023-06-05T05:47:02;4.63;;;0.85;;
45540;SDS011;31265;49.680;8.608;2023-06-05T05:49:33;3.15;;;0.52;;
45540;SDS011;31265;49.680;8.608;2023-06-05T05:52:02;1.50;;;0.50;;
45540;SDS011;31265;49.680;8.608;2023-06-05T05:54:31;1.90;;;0.70;;
45540;SDS011;31265;49.680;8.608;2023-06-05T05:57:01;8.53;;;1.10;;
45540;SDS011;31265;49.680;8.608;2023-06-05T05:59:31;1.02;;;0.40;;
45540;SDS011;31265;49.680;8.608;2023-06-05T06:02:00;2.00;;;0.50;;
45540;SDS011;31265;49.680;8.608;2023-06-05T06:04:35;3.60;;;0.40;;
45540;SDS011;31265;49.680;8.608;2023-06-05T06:07:04;1.30;;;0.57;;
45540;SDS011;31265;49.680;8.608;2023-06-05T06:09:33;1.98;;;0.75;;
45540;SDS011;31265;49.680;8.608;2023-06-05T06:12:02;2.95;;;0.70;;
45540;SDS011;31265;49.680;8.608;2023-06-05T06:14:32;2.28;;;0.73;;
45540;SDS011;31265;49.680;8.608;2023-06-05T06:17:01;0.93;;;0.38;;
45540;SDS011;31265;49.680;8.608;2023-06-05T06:19:33;7.20;;;0.47;;
45540;SDS011;31265;49.680;8.608;2023-06-05T06:22:01;1.70;;;0.57;;
45540;SDS011;31265;49.680;8.608;2023-06-05T06:24:30;1.38;;;0.57;;
45540;SDS011;31265;49.680;8.608;2023-06-05T06:27:00;1.27;;;0.47;;
45540;SDS011;31265;49.680;8.608;2023-06-05T06:29:30;1.23;;;0.50;;
45540;SDS011;31265;49.680;8.608;2023-06-05T06:31:59;0.95;;;0.40;;
45540;SDS011;31265;49.680;8.608;2023-06-05T06:34:27;1.65;;;0.57;;
45540;SDS011;31265;49.680;8.608;2023-06-05T06:36:56;3.03;;;0.57;;
45540;SDS011;31265;49.680;8.608;2023-06-05T06:39:25;0.82;;;0.40;;
45540;SDS011;31265;49.680;8.608;2023-06-05T06:41:53;1.70;;;0.60;;
45540;SDS011;31265;49.680;8.608;2023-06-05T06:44:23;1.05;;;0.50;;
45540;SDS011;31265;49.680;8.608;2023-06-05T06:46:53;1.83;;;0.47;;
45540;SDS011;31265;49.680;8.608;2023-06-05T06:49:21;1.05;;;0.52;;
45540;SDS011;31265;49.680;8.608;2023-06-05T06:51:49;2.08;;;0.73;;
45540;SDS011;31265;49.680;8.608;2023-06-05T06:54:18;2.20;;;0.60;;
45540;SDS011;31265;49.680;8.608;2023-06-05T06:56:46;3.47;;;0.70;;
45540;SDS011;31265;49.680;8.608;2023-06-05T06:59:16;5.68;;;0.70;;
45540;SDS011;31265;49.680;8.608;2023-06-05T07:01:45;1.55;;;0.60;;
45540;SDS011;31265;49.680;8.608;2023-06-05T07:04:16;3.00;;;0.70;;
45540;SDS011;31265;49.680;8.608;2023-06-05T07:06:46;0.98;;;0.43;;
45540;SDS011;31265;49.680;8.608;2023-06-05T07:09:15;5.50;;;0.90;;
45540;SDS011;31265;49.680;8.608;2023-06-05T07:11:43;1.40;;;0.55;;
45540;SDS011;31265;49.680;8.608;2023-06-05T07:14:11;1.13;;;0.40;;
45540;SDS011;31265;49.680;8.608;2023-06-05T07:16:40;2.30;;;0.88;;
45540;SDS011;31265;49.680;8.608;2023-06-05T07:19:12;3.53;;;1.20;;
45540;SDS011;31265;49.680;8.608;2023-06-05T07:21:42;1.65;;;0.50;;
45540;SDS011;31265;49.680;8.608;2023-06-05T07:24:11;0.82;;;0.47;;
45540;SDS011;31265;49.680;8.608;2023-06-05T07:26:39;1.75;;;0.68;;
45540;SDS011;31265;49.680;8.608;2023-06-05T07:29:07;3.65;;;0.90;;
45540;SDS011;31265;49.680;8.608;2023-06-05T07:31:37;3.15;;;0.70;;
45540;SDS011;31265;49.680;8.608;2023-06-05T07:34:05;0.82;;;0.40;;
45540;SDS011;31265;49.680;8.608;2023-06-05T07:36:34;2.65;;;0.82;;
45540;SDS011;31265;49.680;8.608;2023-06-05T07:39:04;1.95;;;0.50;;
45540;SDS011;31265;49.680;8.608;2023-06-05T07:41:34;1.83;;;0.73;;
45540;SDS011;31265;49.680;8.608;2023-06-05T07:44:02;0.67;;;0.33;;
45540;SDS011;31265;49.680;8.608;2023-06-05T07:46:31;1.23;;;0.45;;
45540;SDS011;31265;49.680;8.608;2023-06-05T07:48:59;1.85;;;0.60;;
45540;SDS011;31265;49.680;8.608;2023-06-05T07:51:28;2.22;;;0.70;;
45540;SDS011;31265;49.680;8.608;2023-06-05T07:54:00;1.60;;;0.70;;
45540;SDS011;31265;49.680;8.608;2023-06-05T07:56:30;1.58;;;0.52;;
45540;SDS011;31265;49.680;8.608;2023-06-05T07:59:00;2.25;;;1.02;;
45540;SDS011;31265;49.680;8.608;2023-06-05T08:03:58;2.65;;;0.63;;
45540;SDS011;31265;49.680;8.608;2023-06-05T08:06:27;1.70;;;0.80;;
45540;SDS011;31265;49.680;8.608;2023-06-05T08:11:24;2.25;;;0.85;;
45540;SDS011;31265;49.680;8.608;2023-06-05T08:13:54;4.70;;;0.50;;
45540;SDS011;31265;49.680;8.608;2023-06-05T08:16:23;3.05;;;0.50;;
45540;SDS011;31265;49.680;8.608;2023-06-05T08:18:51;2.22;;;0.70;;
45540;SDS011;31265;49.680;8.608;2023-06-05T08:21:19;2.33;;;0.90;;
45540;SDS011;31265;49.680;8.608;2023-06-05T08:23:48;1.67;;;0.70;;
45540;SDS011;31265;49.680;8.608;2023-06-05T08:26:18;0.90;;;0.50;;
45540;SDS011;31265;49.680;8.608;2023-06-05T08:28:47;0.98;;;0.50;;
45540;SDS011;31265;49.680;8.608;2023-06-05T08:31:18;1.50;;;0.55;;
45540;SDS011;31265;49.680;8.608;2023-06-05T08:33:47;2.25;;;0.52;;
45540;SDS011;31265;49.680;8.608;2023-06-05T08:36:16;1.85;;;0.70;;
45540;SDS011;31265;49.680;8.608;2023-06-05T08:38:44;1.67;;;0.60;;
45540;SDS011;31265;49.680;8.608;2023-06-05T08:41:13;1.53;;;0.60;;
45540;SDS011;31265;49.680;8.608;2023-06-05T08:43:43;2.70;;;0.55;;
45540;SDS011;31265;49.680;8.608;2023-06-05T08:46:12;2.15;;;0.80;;
45540;SDS011;31265;49.680;8.608;2023-06-05T08:48:44;1.40;;;0.60;;
45540;SDS011;31265;49.680;8.608;2023-06-05T08:51:15;2.50;;;0.80;;
45540;SDS011;31265;49.680;8.608;2023-06-05T08:53:47;1.63;;;0.70;;
45540;SDS011;31265;49.680;8.608;2023-06-05T08:56:19;6.07;;;0.82;;
45540;SDS011;31265;49.680;8.608;2023-06-05T09:01:18;2.25;;;0.88;;
45540;SDS011;31265;49.680;8.608;2023-06-05T09:03:48;4.10;;;0.70;;
45540;SDS011;31265;49.680;8.608;2023-06-05T09:06:16;2.22;;;0.85;;
45540;SDS011;31265;49.680;8.608;2023-06-05T09:08:44;2.78;;;1.02;;
45540;SDS011;31265;49.680;8.608;2023-06-05T09:11:20;2.27;;;0.80;;
45540;SDS011;31265;49.680;8.608;2023-06-05T09:13:50;5.07;;;0.60;;
45540;SDS011;31265;49.680;8.608;2023-06-05T09:16:20;2.47;;;0.70;;
45540;SDS011;31265;49.680;8.608;2023-06-05T09:18:55;1.23;;;0.55;;
45540;SDS011;31265;49.680;8.608;2023-06-05T09:21:25;1.70;;;0.75;;
45540;SDS011;31265;49.680;8.608;2023-06-05T09:24:12;2.22;;;1.00;;
45540;SDS011;31265;49.680;8.608;2023-06-05T09:26:45;4.65;;;1.20;;
45540;SDS011;31265;49.680;8.608;2023-06-05T09:29:20;6.30;;;0.80;;
45540;SDS011;31265;49.680;8.608;2023-06-05T09:31:52;3.67;;;0.80;;
45540;SDS011;31265;49.680;8.608;2023-06-05T09:34:24;4.82;;;0.80;;
45540;SDS011;31265;49.680;8.608;2023-06-05T09:36:55;2.30;;;0.80;;
45540;SDS011;31265;49.680;8.608;2023-06-05T09:39:25;2.17;;;0.88;;
45540;SDS011;31265;49.680;8.608;2023-06-05T09:41:56;1.45;;;0.80;;
45540;SDS011;31265;49.680;8.608;2023-06-05T09:44:25;1.52;;;0.75;;
45540;SDS011;31265;49.680;8.608;2023-06-05T09:46:56;6.03;;;1.05;;
45540;SDS011;31265;49.680;8.608;2023-06-05T09:49:28;2.75;;;1.00;;
45540;SDS011;31265;49.680;8.608;2023-06-05T09:51:58;3.58;;;1.02;;
45540;SDS011;31265;49.680;8.608;2023-06-05T09:54:28;2.72;;;1.20;;
45540;SDS011;31265;49.680;8.608;2023-06-05T09:59:28;1.63;;;0.75;;
45540;SDS011;31265;49.680;8.608;2023-06-05T10:02:01;2.78;;;1.30;;
45540;SDS011;31265;49.680;8.608;2023-06-05T10:04:36;1.55;;;0.57;;
45540;SDS011;31265;49.680;8.608;2023-06-05T10:07:08;2.40;;;0.82;;
45540;SDS011;31265;49.680;8.608;2023-06-05T10:09:37;3.53;;;0.75;;
45540;SDS011;31265;49.680;8.608;2023-06-05T10:12:06;2.00;;;0.80;;
45540;SDS011;31265;49.680;8.608;2023-06-05T10:14:36;1.48;;;0.70;;
45540;SDS011;31265;49.680;8.608;2023-06-05T10:17:08;2.00;;;0.90;;
45540;SDS011;31265;49.680;8.608;2023-06-05T10:19:42;3.42;;;0.80;;
45540;SDS011;31265;49.680;8.608;2023-06-05T10:22:11;2.45;;;0.98;;
45540;SDS011;31265;49.680;8.608;2023-06-05T10:24:41;1.45;;;0.70;;
45540;SDS011;31265;49.680;8.608;2023-06-05T10:27:22;2.78;;;1.10;;
45540;SDS011;31265;49.680;8.608;2023-06-05T10:30:09;2.05;;;0.77;;
45540;SDS011;31265;49.680;8.608;2023-06-05T10:32:58;1.52;;;0.73;;
45540;SDS011;31265;49.680;8.608;2023-06-05T10:35:52;1.17;;;0.63;;
45540;SDS011;31265;49.680;8.608;2023-06-05T10:38:27;4.88;;;0.90;;
45540;SDS011;31265;49.680;8.608;2023-06-05T10:40:58;2.67;;;0.70;;
45540;SDS011;31265;49.680;8.608;2023-06-05T10:43:30;2.15;;;0.98;;
45540;SDS011;31265;49.680;8.608;2023-06-05T10:46:00;3.25;;;1.00;;
45540;SDS011;31265;49.680;8.608;2023-06-05T10:51:44;2.80;;;1.10;;
45540;SDS011;31265;49.680;8.608;2023-06-05T10:54:14;2.03;;;0.90;;
45540;SDS011;31265;49.680;8.608;2023-06-05T10:57:08;1.52;;;0.63;;
45540;SDS011;31265;49.680;8.608;2023-06-05T10:59:38;2.20;;;0.90;;
45540;SDS011;31265;49.680;8.608;2023-06-05T11:02:22;3.05;;;1.15;;
45540;SDS011;31265;49.680;8.608;2023-06-05T11:05:06;2.22;;;0.77;;
45540;SDS011;31265;49.680;8.608;2023-06-05T11:07:44;1.67;;;0.85;;
45540;SDS011;31265;49.680;8.608;2023-06-05T11:10:14;2.15;;;0.82;;
45540;SDS011;31265;49.680;8.608;2023-06-05T11:12:56;2.08;;;0.98;;
45540;SDS011;31265;49.680;8.608;2023-06-05T11:15:38;2.55;;;0.70;;
45540;SDS011;31265;49.680;8.608;2023-06-05T11:18:31;1.52;;;0.80;;
45540;SDS011;31265;49.680;8.608;2023-06-05T11:21:00;2.05;;;0.85;;
45540;SDS011;31265;49.680;8.608;2023-06-05T11:23:31;1.58;;;0.70;;
45540;SDS011;31265;49.680;8.608;2023-06-05T11:29:15;2.05;;;0.80;;
45540;SDS011;31265;49.680;8.608;2023-06-05T11:31:44;2.63;;;1.17;;
45540;SDS011;31265;49.680;8.608;2023-06-05T11:34:14;2.75;;;0.98;;
45540;SDS011;31265;49.680;8.608;2023-06-05T11:36:42;3.63;;;0.93;;
45540;SDS011;31265;49.680;8.608;2023-06-05T11:39:13;1.55;;;0.73;;
45540;SDS011;31265;49.680;8.608;2023-06-05T11:41:45;1.70;;;0.60;;
45540;SDS011;31265;49.680;8.608;2023-06-05T11:44:14;2.08;;;0.90;;
45540;SDS011;31265;49.680;8.608;2023-06-05T11:46:43;2.17;;;0.85;;
45540;SDS011;31265;49.680;8.608;2023-06-05T11:49:22;2.00;;;0.82;;
45540;SDS011;31265;49.680;8.608;2023-06-05T11:51:53;2.20;;;0.88;;
45540;SDS011;31265;49.680;8.608;2023-06-05T11:54:28;2.22;;;1.02;;
45540;SDS011;31265;49.680;8.608;2023-06-05T11:57:01;3.45;;;0.88;;
45540;SDS011;31265;49.680;8.608;2023-06-05T11:59:37;5.97;;;1.15;;
45540;SDS011;31265;49.680;8.608;2023-06-05T12:02:05;1.60;;;0.88;;
45540;SDS011;31265;49.680;8.608;2023-06-05T12:04:34;1.20;;;0.60;;
45540;SDS011;31265;49.680;8.608;2023-06-05T12:07:04;4.32;;;0.85;;
45540;SDS011;31265;49.680;8.608;2023-06-05T12:09:34;2.05;;;0.82;;
45540;SDS011;31265;49.680;8.608;2023-06-05T12:12:06;2.10;;;0.70;;
45540;SDS011;31265;49.680;8.608;2023-06-05T12:14:35;2.35;;;1.00;;
45540;SDS011;31265;49.680;8.608;2023-06-05T12:17:10;1.98;;;0.95;;
45540;SDS011;31265;49.680;8.608;2023-06-05T12:19:39;2.40;;;0.68;;
45540;SDS011;31265;49.680;8.608;2023-06-05T12:24:39;1.75;;;0.80;;
45540;SDS011;31265;49.680;8.608;2023-06-05T12:27:08;1.60;;;0.80;;
45540;SDS011;31265;49.680;8.608;2023-06-05T12:29:39;2.30;;;0.73;;
45540;SDS011;31265;49.680;8.608;2023-06-05T12:32:21;2.80;;;1.10;;
45540;SDS011;31265;49.680;8.608;2023-06-05T12:34:51;2.85;;;1.10;;
45540;SDS011;31265;49.680;8.608;2023-06-05T12:37:30;3.00;;;0.77;;
45540;SDS011;31265;49.680;8.608;2023-06-05T12:40:06;2.38;;;0.80;;
45540;SDS011;31265;49.680;8.608;2023-06-05T12:42:39;2.88;;;1.00;;
45540;SDS011;31265;49.680;8.608;2023-06-05T12:45:15;2.50;;;0.98;;
45540;SDS011;31265;49.680;8.608;2023-06-05T12:50:13;2.28;;;0.80;;
45540;SDS011;31265;49.680;8.608;2023-06-05T12:52:42;1.60;;;0.68;;
45540;SDS011;31265;49.680;8.608;2023-06-05T12:55:13;3.00;;;0.90;;
45540;SDS011;31265;49.680;8.608;2023-06-05T12:57:42;1.77;;;0.70;;
45540;SDS011;31265;49.680;8.608;2023-06-05T13:00:12;1.42;;;0.70;;
45540;SDS011;31265;49.680;8.608;2023-06-05T13:02:43;2.15;;;0.73;;
45540;SDS011;31265;49.680;8.608;2023-06-05T13:05:13;2.20;;;0.80;;
45540;SDS011;31265;49.680;8.608;2023-06-05T13:07:42;2.45;;;1.17;;
45540;SDS011;31265;49.680;8.608;2023-06-05T13:10:11;1.70;;;0.75;;
45540;SDS011;31265;49.680;8.608;2023-06-05T13:15:11;2.55;;;1.00;;
45540;SDS011;31265;49.680;8.608;2023-06-05T13:17:40;2.67;;;0.70;;
45540;SDS011;31265;49.680;8.608;2023-06-05T13:20:10;1.95;;;0.60;;
45540;SDS011;31265;49.680;8.608;2023-06-05T13:22:39;1.45;;;0.68;;
45540;SDS011;31265;49.680;8.608;2023-06-05T13:25:08;2.63;;;0.75;;
45540;SDS011;31265;49.680;8.608;2023-06-05T13:30:07;1.88;;;0.95;;
45540;SDS011;31265;49.680;8.608;2023-06-05T13:32:37;2.00;;;0.63;;
45540;SDS011;31265;49.680;8.608;2023-06-05T13:35:06;2.90;;;0.73;;
45540;SDS011;31265;49.680;8.608;2023-06-05T13:37:36;2.95;;;1.00;;
45540;SDS011;31265;49.680;8.608;2023-06-05T13:40:05;2.08;;;0.57;;
45540;SDS011;31265;49.680;8.608;2023-06-05T13:42:38;1.65;;;0.70;;
45540;SDS011;31265;49.680;8.608;2023-06-05T13:45:09;3.70;;;0.77;;
45540;SDS011;31265;49.680;8.608;2023-06-05T13:47:37;4.47;;;0.63;;
45540;SDS011;31265;49.680;8.608;2023-06-05T13:50:06;2.35;;;0.90;;
45540;SDS011;31265;49.680;8.608;2023-06-05T13:52:36;1.35;;;0.77;;
45540;SDS011;31265;49.680;8.608;2023-06-05T13:55:05;0.97;;;0.57;;
45540;SDS011;31265;49.680;8.608;2023-06-05T13:57:34;4.13;;;0.63;;
45540;SDS011;31265;49.680;8.608;2023-06-05T14:00:03;1.60;;;0.70;;
45540;SDS011;31265;49.680;8.608;2023-06-05T14:02:34;1.20;;;0.52;;
45540;SDS011;31265;49.680;8.608;2023-06-05T14:05:03;4.47;;;1.20;;
45540;SDS011;31265;49.680;8.608;2023-06-05T14:07:32;2.63;;;0.80;;
45540;SDS011;31265;49.680;8.608;2023-06-05T14:10:15;1.23;;;0.47;;
45540;SDS011;31265;49.680;8.608;2023-06-05T14:12:43;1.85;;;0.60;;
45540;SDS011;31265;49.680;8.608;2023-06-05T14:15:12;1.97;;;0.70;;
45540;SDS011;31265;49.680;8.608;2023-06-05T14:17:42;1.17;;;0.50;;
45540;SDS011;31265;49.680;8.608;2023-06-05T14:20:12;2.53;;;1.05;;
45540;SDS011;31265;49.680;8.608;2023-06-05T14:22:40;4.38;;;0.98;;
45540;SDS011;31265;49.680;8.608;2023-06-05T14:25:09;1.45;;;0.70;;
45540;SDS011;31265;49.680;8.608;2023-06-05T14:27:38;2.53;;;0.60;;
45540;SDS011;31265;49.680;8.608;2023-06-05T14:30:07;3.70;;;0.95;;
45540;SDS011;31265;49.680;8.608;2023-06-05T14:32:36;1.55;;;0.70;;
45540;SDS011;31265;49.680;8.608;2023-06-05T14:35:07;2.65;;;0.80;;
45540;SDS011;31265;49.680;8.608;2023-06-05T14:37:36;1.30;;;0.63;;
45540;SDS011;31265;49.680;8.608;2023-06-05T14:40:07;1.80;;;0.60;;
45540;SDS011;31265;49.680;8.608;2023-06-05T14:42:36;4.15;;;1.17;;
45540;SDS011;31265;49.680;8.608;2023-06-05T14:45:05;3.60;;;0.82;;
45540;SDS011;31265;49.680;8.608;2023-06-05T14:47:34;1.60;;;0.68;;
45540;SDS011;31265;49.680;8.608;2023-06-05T14:50:07;1.30;;;0.60;;
45540;SDS011;31265;49.680;8.608;2023-06-05T14:52:36;2.10;;;0.82;;
45540;SDS011;31265;49.680;8.608;2023-06-05T14:55:04;1.33;;;0.60;;
45540;SDS011;31265;49.680;8.608;2023-06-05T14:57:34;3.00;;;0.63;;
45540;SDS011;31265;49.680;8.608;2023-06-05T15:00:03;1.25;;;0.50;;
45540;SDS011;31265;49.680;8.608;2023-06-05T15:02:33;2.72;;;0.80;;
45540;SDS011;31265;49.680;8.608;2023-06-05T15:05:02;1.08;;;0.50;;
45540;SDS011;31265;49.680;8.608;2023-06-05T15:07:37;2.22;;;0.70;;
45540;SDS011;31265;49.680;8.608;2023-06-05T15:10:07;1.17;;;0.50;;
45540;SDS011;31265;49.680;8.608;2023-06-05T15:12:39;1.65;;;0.57;;
45540;SDS011;31265;49.680;8.608;2023-06-05T15:15:09;1.58;;;0.65;;
45540;SDS011;31265;49.680;8.608;2023-06-05T15:17:48;3.25;;;0.60;;
45540;SDS011;31265;49.680;8.608;2023-06-05T15:20:19;1.98;;;0.80;;
45540;SDS011;31265;49.680;8.608;2023-06-05T15:22:53;2.95;;;0.60;;
45540;SDS011;31265;49.680;8.608;2023-06-05T15:25:24;1.75;;;0.93;;
45540;SDS011;31265;49.680;8.608;2023-06-05T15:27:54;2.85;;;1.23;;
45540;SDS011;31265;49.680;8.608;2023-06-05T15:30:22;7.30;;;0.70;;
45540;SDS011;31265;49.680;8.608;2023-06-05T15:32:51;1.83;;;0.70;;
45540;SDS011;31265;49.680;8.608;2023-06-05T15:35:19;2.53;;;0.80;;
45540;SDS011;31265;49.680;8.608;2023-06-05T15:37:49;2.15;;;0.80;;